My Meet Scores
Allison Matulis, Aerial Gymnastics Club - MyMeetScores.com
Top100 | Top Teams | Upcoming Meets | Completed Meets | Latest | Add Scores | Help| Support | Bookmark and Share

Allison Matulis, Aerial Gymnastics Club
Personal Bests
LevelVault BarsBeamFloorAA
39.3509.550 9.3009.55037.150
48.5258.750 9.1509.30035.425
69.1509.450 8.7509.45036.375
Meet Scores
Date Meet Team Session Level Division Vault Bars Beam Floor AA
2019-03-15 Illinois State Championship Level 6,9,10 Aerial Gymnastics Club 12 6 Jr F 9.150 8T 9.450 7 8.550 21 9.225 18T 36.375 17
2019-02-15 Women's Midwest Open Aerial Gymnastics Club 01 6 Junior A 8.600 6 8.950 8T 8.150 13 9.225 11 34.925 12
2019-01-19 2019 Hang 10.0 Invitational Aerial Gymnastics Club 1 6 11 Yr Olds 8.400 7T 8.650 5T 8.500 7T 9.200 3T 34.750 5
2019-01-11 St Jude Benefit Meet Aerial Gymnastics Club 2B 6 Jr A 8.475 5 9.250 3 8.075 12 9.450 6T 35.250 9
2018-12-14 Hawaiian Pineapple Classic Aerial Gymnastics Club 1A 6 Age11 8.875 1 8.825 5T 8.750 10 9.275 6T 35.725 4
2018-11-30 Ultimate Wish Classic Aerial Gymnastics Club 12 6 CH 8.500 10T 8.675 5 7.800 15 9.100 15T 34.075 14
2018-03-08 Level 4 & 5 State Infinity Gymnastics Academy All 4 Jr B 8.525 19T 8.750 17T 9.150 17T 9.000 18 35.425 18
2018-02-23 Kinetic Classic Infinity Gymnastics Academy 7 4 Middle 7.900 69 8.125 73 9.100 42T 9.300 18T 34.425 52T
2018-02-17 Women's Midwest Open Infinity Gymnastics Academy 08 4 JR B 8.450 11T 8.375 13 8.400 14T 8.775 10 34.000 13
2018-02-02 Chris Waller's Heart Of A Champion Invitational Infinity Gymnastics Academy 12H 4 Jr C 8.425 10 8.375 7 7.850 14 8.725 7 33.375 10
2018-01-18 Circle Of Stars Gymnastics Invitational Infinity Gymnastics Academy C3 4 Jr B 8.500 14 7.900 17 7.950 18 8.800 9 33.150 16
2018-01-12 St Jude Benefit Meet Infinity Gymnastics Academy 3A 4 JrC 7.750 17 8.250 12T 9.000 9T 8.600 13 33.600 12
2017-12-14 2017 Women's Hawaiian Pineapple Classic Infinity Gymnastics Academy 1A 4 Age10 7.800 21 7.800 22 8.950 7T 8.800 9T 33.350 14
2017-11-10 Illinois NAWGJ Judges Cup 2017 Infinity Gymnastics Academy G3 4 All Ages 8.000 48T 8.300 41T 8.800 24T 8.200 44T 33.300 38
2017-03-30 2017 Illinois Level 3 & 5 State Infinity Gymnastics Academy All 3 Jr C 9.350 18T 9.450 7T 9.050 13T 8.875 21 36.725 14
2017-03-10 Lucky Invitational Infinity Gymnastics Academy B02 3 Sr A 9.050 7 9.550 1 9.000 4T 9.350 5 36.950 3
2017-02-24 Houston National Invitational - Ocean View Infinity Gymnastics Academy O03 3 Jr C 9.350 3 9.500 1T 8.750 4 9.550 1 37.150 2
2017-02-10 IGI Chicago Style Gymnastics Meet Infinity Gymnastics Academy 232L 3 JrC 9.000 18 9.000 13 8.800 13 8.600 12 35.400 12
2017-01-28 Wisconsin Dells Gymnastics Vacation Classic - USAG Infinity Gymnastics Academy B6 3 Junior B 9.150 7T 9.275 5 9.300 2 9.175 3 36.900 2
2017-01-13 St Jude Benefit Meet Infinity Gymnastics Academy 9A 3 Jr C 9.150 7 9.475 2 7.650 17 8.950 11T 35.225 14
2016-12-15 2016 Hawaiian Pineapple Sanction Infinity Gymnastics Academy 5B 3 Age 9 9.200 9T 8.900 7 8.350 20T 8.900 10 35.350 12
2016-11-11 2016 Illinois Judges Cup Infinity Gymnastics Academy B6 3 9-10 Year 9.325 7 8.600 10T 8.700 7 8.550 7T 35.175 4
Get your scores on
a t-shirt, pin, or hoodie

Order by December 13

www.lazysuits.com